createdAt,value
2023-02-14T00:00:49.175Z,19.33
2023-02-14T00:03:16.073Z,18.70
2023-02-14T00:05:42.746Z,23.10
2023-02-14T00:08:09.323Z,21.95
2023-02-14T00:10:35.935Z,20.38
2023-02-14T00:13:02.493Z,17.63
2023-02-14T00:15:29.076Z,18.35
2023-02-14T00:17:59.617Z,20.95
2023-02-14T00:20:27.595Z,19.05
2023-02-14T00:22:54.685Z,19.10
2023-02-14T00:25:21.347Z,19.35
2023-02-14T00:27:47.977Z,20.48
2023-02-14T00:30:14.930Z,22.45
2023-02-14T00:32:42.539Z,19.45
2023-02-14T00:35:09.723Z,19.50
2023-02-14T00:37:36.653Z,21.70
2023-02-14T00:40:05.114Z,18.30
2023-02-14T00:42:31.660Z,20.13
2023-02-14T00:44:58.189Z,19.60
2023-02-14T00:47:24.861Z,18.65
2023-02-14T00:49:51.958Z,20.35
2023-02-14T00:52:18.654Z,19.90
2023-02-14T00:54:45.446Z,22.00
2023-02-14T00:57:14.016Z,20.00
2023-02-14T00:59:40.566Z,19.27
2023-02-14T01:02:07.248Z,21.15
2023-02-14T01:04:34.342Z,19.52
2023-02-14T01:07:00.935Z,21.73
2023-02-14T01:09:27.649Z,18.45
2023-02-14T01:11:54.250Z,19.98
2023-02-14T01:14:20.797Z,18.27
2023-02-14T01:16:49.537Z,21.02
2023-02-14T01:19:16.516Z,21.55
2023-02-14T01:21:43.872Z,23.42
2023-02-14T01:24:12.141Z,21.80
2023-02-14T01:26:39.694Z,19.92
2023-02-14T01:29:06.624Z,18.60
2023-02-14T01:31:35.334Z,19.65
2023-02-14T01:34:02.595Z,23.80
2023-02-14T01:36:31.953Z,21.77
2023-02-14T01:39:02.245Z,21.05
2023-02-14T01:41:32.451Z,21.13
2023-02-14T01:44:01.550Z,19.75
2023-02-14T01:46:32.239Z,22.65
2023-02-14T01:49:04.819Z,21.83
2023-02-14T01:53:59.877Z,18.45
2023-02-14T01:56:45.440Z,20.05
2023-02-14T01:59:18.284Z,21.35
2023-02-14T02:01:48.459Z,17.13
2023-02-14T02:04:25.853Z,21.63
2023-02-14T02:06:56.546Z,21.83
2023-02-14T02:09:46.918Z,21.83
2023-02-14T02:12:13.572Z,17.77
2023-02-14T02:14:41.292Z,20.08
2023-02-14T02:17:35.807Z,20.73
2023-02-14T02:20:40.410Z,24.25
2023-02-14T02:23:21.900Z,20.75
2023-02-14T02:26:07.347Z,20.33
2023-02-14T02:29:15.878Z,23.17
2023-02-14T02:31:45.991Z,21.75
2023-02-14T02:34:50.222Z,23.20
2023-02-14T02:37:28.383Z,21.80
2023-02-14T02:40:22.185Z,22.52
2023-02-14T02:42:56.472Z,22.48
2023-02-14T02:46:28.577Z,20.30
2023-02-14T02:49:03.745Z,21.65
2023-02-14T02:51:58.395Z,18.55
2023-02-14T02:54:39.007Z,21.05
2023-02-14T02:57:12.441Z,26.80
2023-02-14T02:59:42.610Z,18.30
2023-02-14T03:02:17.881Z,18.60
2023-02-14T03:04:55.844Z,18.65
2023-02-14T03:07:40.588Z,18.55
2023-02-14T03:10:13.015Z,18.48
2023-02-14T03:12:58.452Z,18.10
2023-02-14T03:15:27.878Z,18.30
2023-02-14T03:18:00.542Z,18.50
2023-02-14T03:23:09.406Z,19.27
2023-02-14T03:25:52.616Z,20.23
2023-02-14T03:28:40.934Z,20.67
2023-02-14T03:31:23.094Z,18.23
2023-02-14T03:34:00.878Z,22.30
2023-02-14T03:36:39.273Z,24.20
2023-02-14T03:39:16.073Z,20.25
2023-02-14T03:41:56.522Z,20.30
2023-02-14T03:44:28.446Z,18.58
2023-02-14T03:47:01.272Z,16.67
2023-02-14T03:49:32.314Z,18.02
2023-02-14T03:52:02.543Z,23.10
2023-02-14T03:54:32.807Z,19.00
2023-02-14T03:57:12.458Z,19.40
2023-02-14T03:59:39.853Z,20.17
2023-02-14T04:02:11.285Z,19.88
2023-02-14T04:04:43.368Z,18.25
2023-02-14T04:07:16.360Z,19.65
2023-02-14T04:09:43.049Z,24.23
2023-02-14T04:12:10.340Z,17.15
2023-02-14T04:14:37.730Z,20.60
2023-02-14T04:17:23.396Z,18.67
2023-02-14T04:19:50.615Z,18.50
2023-02-14T04:22:17.330Z,19.27
2023-02-14T04:24:43.897Z,19.13
2023-02-14T04:27:11.159Z,19.63
2023-02-14T04:29:40.347Z,22.40
2023-02-14T04:32:12.845Z,20.55
2023-02-14T04:37:06.921Z,24.02
2023-02-14T04:39:34.053Z,19.65
2023-02-14T04:42:00.941Z,22.38
2023-02-14T04:44:27.776Z,20.38
2023-02-14T04:46:54.617Z,21.75
2023-02-14T04:49:21.369Z,20.63
2023-02-14T04:51:48.286Z,18.25
2023-02-14T04:54:14.924Z,20.38
2023-02-14T04:56:41.589Z,20.98
2023-02-14T04:59:08.719Z,20.70
2023-02-14T05:01:35.405Z,23.67
2023-02-14T05:04:02.141Z,26.27
2023-02-14T05:06:28.994Z,22.38
2023-02-14T05:08:56.702Z,19.60
2023-02-14T05:11:23.394Z,24.60
2023-02-14T05:13:50.298Z,21.48
2023-02-14T05:16:16.966Z,19.98
2023-02-14T05:18:43.573Z,22.75
2023-02-14T05:21:10.744Z,21.10
2023-02-14T05:23:37.552Z,19.48
2023-02-14T05:26:04.602Z,19.85
2023-02-14T05:28:31.793Z,24.00
2023-02-14T05:30:58.904Z,20.05
2023-02-14T05:33:26.995Z,20.90
2023-02-14T05:35:53.607Z,20.45
2023-02-14T05:38:20.275Z,22.30
2023-02-14T05:40:46.978Z,20.88
2023-02-14T05:43:13.696Z,24.98
2023-02-14T05:45:40.264Z,22.33
2023-02-14T05:48:06.868Z,20.30
2023-02-14T05:50:33.535Z,21.08
2023-02-14T05:53:00.729Z,20.35
2023-02-14T05:55:27.306Z,21.10
2023-02-14T05:57:53.840Z,21.35
2023-02-14T06:00:21.307Z,23.00
2023-02-14T06:02:47.932Z,23.08
2023-02-14T06:05:15.188Z,20.98
2023-02-14T06:07:43.598Z,25.17
2023-02-14T06:10:10.381Z,22.48
2023-02-14T06:12:37.038Z,24.85
2023-02-14T06:15:04.518Z,20.85
2023-02-14T06:17:31.124Z,24.58
2023-02-14T06:19:57.623Z,23.38
2023-02-14T06:22:24.255Z,24.50
2023-02-14T06:24:50.789Z,21.73
2023-02-14T06:27:17.417Z,27.05
2023-02-14T06:29:44.049Z,20.65
2023-02-14T06:32:10.787Z,24.05
2023-02-14T06:34:37.402Z,21.85
2023-02-14T06:37:03.918Z,18.90
2023-02-14T06:39:30.415Z,23.45
2023-02-14T06:41:56.971Z,24.80
2023-02-14T06:44:23.533Z,27.10
2023-02-14T06:46:50.356Z,25.27
2023-02-14T06:49:16.894Z,30.30
2023-02-14T06:51:43.431Z,26.08
2023-02-14T06:54:10.022Z,29.20
2023-02-14T06:56:36.597Z,25.33
2023-02-14T06:59:03.213Z,30.10
2023-02-14T07:01:29.941Z,28.25
2023-02-14T07:03:56.604Z,26.23
2023-02-14T07:06:23.186Z,25.90
2023-02-14T07:08:49.824Z,23.83
2023-02-14T07:11:16.762Z,23.08
2023-02-14T07:13:43.920Z,23.88
2023-02-14T07:16:10.930Z,23.88
2023-02-14T07:18:37.741Z,24.77
2023-02-14T07:21:06.040Z,23.60
2023-02-14T07:23:33.026Z,23.13
2023-02-14T07:25:59.672Z,28.27
2023-02-14T07:28:26.289Z,26.52
2023-02-14T07:30:52.983Z,23.55
2023-02-14T07:33:19.645Z,26.98
2023-02-14T07:35:46.281Z,27.35
2023-02-14T07:38:12.813Z,25.42
2023-02-14T07:40:39.350Z,26.58
2023-02-14T07:43:06.402Z,27.73
2023-02-14T07:45:32.953Z,29.83
2023-02-14T07:48:02.050Z,27.15
2023-02-14T07:50:29.372Z,29.13
2023-02-14T07:52:56.475Z,24.25
2023-02-14T07:55:25.062Z,24.55
2023-02-14T07:57:52.054Z,23.48
2023-02-14T08:00:19.374Z,19.35
2023-02-14T08:02:45.999Z,20.85
2023-02-14T08:05:12.819Z,18.13
2023-02-14T08:07:39.413Z,17.67
2023-02-14T08:10:06.836Z,16.52
2023-02-14T08:12:52.014Z,21.10
2023-02-14T08:15:37.301Z,18.63
2023-02-14T08:18:04.145Z,19.88
2023-02-14T08:20:30.704Z,18.45
2023-02-14T08:22:58.197Z,21.05
2023-02-14T08:25:24.800Z,21.20
2023-02-14T08:27:51.447Z,18.52
2023-02-14T08:30:18.349Z,21.50
2023-02-14T08:32:45.177Z,16.30
2023-02-14T08:35:11.754Z,19.08
2023-02-14T08:37:38.390Z,16.35
2023-02-14T08:40:05.775Z,16.23
2023-02-14T08:42:32.800Z,18.52
2023-02-14T08:44:59.403Z,16.95
2023-02-14T08:47:25.972Z,17.88
2023-02-14T08:49:52.664Z,17.88
2023-02-14T08:52:19.271Z,14.70
2023-02-14T08:54:45.873Z,17.95
2023-02-14T08:57:12.838Z,20.77
2023-02-14T08:59:40.518Z,19.60
2023-02-14T09:02:07.120Z,17.05
2023-02-14T09:04:35.251Z,16.35
2023-02-14T09:07:02.025Z,16.02
2023-02-14T09:09:28.846Z,17.88
2023-02-14T09:11:56.171Z,15.35
2023-02-14T09:14:24.261Z,14.32
2023-02-14T09:16:51.029Z,16.58
2023-02-14T09:19:20.583Z,16.35
2023-02-14T09:21:47.250Z,14.95
2023-02-14T09:24:13.788Z,14.45
2023-02-14T09:26:42.150Z,15.88
2023-02-14T09:29:09.794Z,14.95
2023-02-14T09:31:36.508Z,16.83
2023-02-14T09:34:03.562Z,15.75
2023-02-14T09:36:30.223Z,15.75
2023-02-14T09:38:56.783Z,15.00
2023-02-14T09:41:26.096Z,15.48
2023-02-14T09:44:03.461Z,15.48
2023-02-14T09:46:35.184Z,15.35
2023-02-14T09:49:02.978Z,15.47
2023-02-14T09:51:31.602Z,16.00
2023-02-14T09:54:12.722Z,14.27
2023-02-14T09:57:02.608Z,15.67
2023-02-14T09:59:51.815Z,15.38
2023-02-14T10:02:46.186Z,14.27
2023-02-14T10:05:26.517Z,14.55
2023-02-14T10:08:05.478Z,14.13
2023-02-14T10:10:41.593Z,17.50
2023-02-14T10:13:25.858Z,16.35
2023-02-14T10:16:04.399Z,13.02
2023-02-14T10:18:41.218Z,12.80
2023-02-14T10:21:15.488Z,15.73
2023-02-14T10:23:47.469Z,14.52
2023-02-14T10:26:39.980Z,13.90
2023-02-14T10:29:14.232Z,16.35
2023-02-14T10:31:56.845Z,14.10
2023-02-14T10:34:45.703Z,14.43
2023-02-14T10:37:30.608Z,20.45
2023-02-14T10:40:06.322Z,15.13
2023-02-14T10:42:32.921Z,14.18
2023-02-14T10:45:41.694Z,12.05
2023-02-14T10:48:21.508Z,16.08
2023-02-14T10:51:06.998Z,14.10
2023-02-14T10:53:50.203Z,16.05
2023-02-14T10:56:28.035Z,18.08
2023-02-14T10:58:56.585Z,14.27
2023-02-14T11:01:23.741Z,13.60
2023-02-14T11:04:03.330Z,14.02
2023-02-14T11:06:30.811Z,14.70
2023-02-14T11:08:57.598Z,13.10
2023-02-14T11:11:53.119Z,17.17
2023-02-14T11:14:32.841Z,16.10
2023-02-14T11:17:00.645Z,14.13
2023-02-14T11:19:30.073Z,13.43
2023-02-14T11:21:59.494Z,15.95
2023-02-14T11:24:28.400Z,14.85
2023-02-14T11:26:58.987Z,13.23
2023-02-14T11:29:33.195Z,15.18
2023-02-14T11:32:37.525Z,15.45
2023-02-14T11:35:33.797Z,13.63
2023-02-14T11:38:03.625Z,21.77
2023-02-14T11:40:34.644Z,14.48
2023-02-14T11:43:19.050Z,13.68
2023-02-14T11:45:47.700Z,16.98
2023-02-14T11:48:37.173Z,15.38
2023-02-14T11:51:10.915Z,14.82
2023-02-14T11:56:10.197Z,15.35
2023-02-14T11:58:47.728Z,16.13
2023-02-14T12:01:24.149Z,19.10
2023-02-14T12:03:53.013Z,13.50
2023-02-14T12:06:38.530Z,14.73
2023-02-14T12:09:23.465Z,15.25
2023-02-14T12:12:00.140Z,15.20
2023-02-14T12:14:31.013Z,16.63
2023-02-14T12:17:31.530Z,15.48
2023-02-14T12:20:13.624Z,18.65
2023-02-14T12:22:47.600Z,14.63
2023-02-14T12:25:22.786Z,16.17
2023-02-14T12:27:56.273Z,17.00
2023-02-14T12:30:25.259Z,19.60
2023-02-14T12:32:53.996Z,17.08
2023-02-14T12:35:54.045Z,14.82
2023-02-14T12:38:27.554Z,14.35
2023-02-14T12:41:12.549Z,16.77
2023-02-14T12:43:50.612Z,16.42
2023-02-14T12:46:43.963Z,17.15
2023-02-14T12:49:34.772Z,14.88
2023-02-14T12:52:33.547Z,16.60
2023-02-14T12:55:18.060Z,19.30
2023-02-14T12:57:59.472Z,16.70
2023-02-14T13:00:54.615Z,16.70
2023-02-14T13:03:41.871Z,18.13
2023-02-14T13:06:34.526Z,15.15
2023-02-14T13:09:20.391Z,16.83
2023-02-14T13:12:01.813Z,15.38
2023-02-14T13:14:46.839Z,16.48
2023-02-14T13:17:35.344Z,15.93
2023-02-14T13:20:44.710Z,15.98
2023-02-14T13:23:18.952Z,15.98
2023-02-14T13:25:51.885Z,15.70
2023-02-14T13:28:20.121Z,15.68
2023-02-14T13:30:47.007Z,14.93
2023-02-14T13:34:03.210Z,15.77
2023-02-14T13:36:31.307Z,16.25
2023-02-14T13:38:59.241Z,18.23
2023-02-14T13:41:28.142Z,15.43
2023-02-14T13:44:02.412Z,14.43
2023-02-14T13:46:32.037Z,14.93
2023-02-14T13:49:07.428Z,15.85
2023-02-14T13:51:48.345Z,15.95
2023-02-14T13:54:46.712Z,15.13
2023-02-14T13:57:36.560Z,15.50
2023-02-14T14:00:18.918Z,16.92
2023-02-14T14:02:51.519Z,15.18
2023-02-14T14:08:22.346Z,15.77
2023-02-14T14:11:00.374Z,19.07
2023-02-14T14:13:42.246Z,18.02
2023-02-14T14:16:24.074Z,21.40
2023-02-14T14:18:54.182Z,15.98
2023-02-14T14:21:41.275Z,18.77
2023-02-14T14:24:22.558Z,15.85
2023-02-14T14:27:05.122Z,16.00
2023-02-14T14:29:39.480Z,17.98
2023-02-14T14:32:19.077Z,20.58
2023-02-14T14:35:10.105Z,18.90
2023-02-14T14:37:46.901Z,18.23
2023-02-14T14:40:35.584Z,19.55
2023-02-14T14:43:09.906Z,19.17
2023-02-14T14:45:37.011Z,17.85
2023-02-14T14:48:12.632Z,16.67
2023-02-14T14:50:45.846Z,17.05
2023-02-14T14:53:27.052Z,18.30
2023-02-14T14:55:54.747Z,16.70
2023-02-14T14:58:41.754Z,17.73
2023-02-14T15:01:21.374Z,16.67
2023-02-14T15:03:48.117Z,16.95
2023-02-14T15:06:21.222Z,18.55
2023-02-14T15:08:49.512Z,20.92
2023-02-14T15:11:40.355Z,19.70
2023-02-14T15:14:13.219Z,18.70
2023-02-14T15:16:50.137Z,19.73
2023-02-14T15:19:22.934Z,16.85
2023-02-14T15:21:50.423Z,17.80
2023-02-14T15:24:19.343Z,19.08
2023-02-14T15:26:48.438Z,20.27
2023-02-14T15:29:30.589Z,18.17
2023-02-14T15:32:02.510Z,20.13
2023-02-14T15:34:37.690Z,19.80
2023-02-14T15:37:06.548Z,19.27
2023-02-14T15:39:37.641Z,16.52
2023-02-14T15:42:05.923Z,20.98
2023-02-14T15:44:32.890Z,22.20
2023-02-14T15:47:02.889Z,19.48
2023-02-14T15:49:38.110Z,20.90
2023-02-14T15:52:06.590Z,19.75
2023-02-14T15:54:38.327Z,20.30
2023-02-14T15:57:07.642Z,19.85
2023-02-14T15:59:36.751Z,21.17
2023-02-14T16:02:19.497Z,21.98
2023-02-14T16:07:26.521Z,19.50
2023-02-14T16:10:26.520Z,19.23
2023-02-14T16:12:59.197Z,22.58
2023-02-14T16:17:54.021Z,18.70
2023-02-14T16:20:28.690Z,21.23
2023-02-14T16:23:28.343Z,23.02
2023-02-14T16:25:58.911Z,19.88
2023-02-14T16:28:30.168Z,20.05
2023-02-14T16:30:58.668Z,21.65
2023-02-14T16:33:28.884Z,22.75
2023-02-14T16:36:01.259Z,18.88
2023-02-14T16:38:27.866Z,22.23
2023-02-14T16:40:54.651Z,19.80
2023-02-14T16:43:21.629Z,17.08
2023-02-14T16:45:48.486Z,22.15
2023-02-14T16:48:17.955Z,21.70
2023-02-14T16:50:45.601Z,19.65
2023-02-14T16:53:23.807Z,21.83
2023-02-14T16:55:53.017Z,20.55
2023-02-14T16:58:21.492Z,20.35
2023-02-14T17:00:48.099Z,19.27
2023-02-14T17:03:14.701Z,25.35
2023-02-14T17:05:41.720Z,22.38
2023-02-14T17:08:11.680Z,30.42
2023-02-14T17:10:41.481Z,23.50
2023-02-14T17:13:09.777Z,22.60
2023-02-14T17:15:39.026Z,33.20
2023-02-14T17:18:11.742Z,30.88
2023-02-14T17:23:05.346Z,29.05
2023-02-14T17:25:32.214Z,26.30
2023-02-14T17:28:00.920Z,23.27
2023-02-14T17:30:28.060Z,27.20
2023-02-14T17:32:54.602Z,32.33
2023-02-14T17:35:21.460Z,35.25
2023-02-14T17:37:48.029Z,28.98
2023-02-14T17:40:14.984Z,27.50
2023-02-14T17:42:42.320Z,29.88
2023-02-14T17:45:11.637Z,26.33
2023-02-14T17:47:39.707Z,23.95
2023-02-14T17:50:07.134Z,28.73
2023-02-14T17:52:34.352Z,26.83
2023-02-14T17:55:00.978Z,28.45
2023-02-14T17:57:27.579Z,27.05
2023-02-14T17:59:54.136Z,27.60
2023-02-14T18:02:20.735Z,27.95
2023-02-14T18:04:48.378Z,28.50
2023-02-14T18:07:15.141Z,30.63
2023-02-14T18:09:41.707Z,34.80
2023-02-14T18:12:14.471Z,39.90
2023-02-14T18:14:41.748Z,37.92
2023-02-14T18:17:08.379Z,37.25
2023-02-14T18:19:35.046Z,38.67
2023-02-14T18:22:01.648Z,38.97
2023-02-14T18:24:28.277Z,40.95
2023-02-14T18:26:55.400Z,43.03
2023-02-14T18:29:22.701Z,47.00
2023-02-14T18:31:49.617Z,46.38
2023-02-14T18:34:16.247Z,44.00
2023-02-14T18:36:42.930Z,43.20
2023-02-14T18:39:10.434Z,35.13
2023-02-14T18:41:37.256Z,39.00
2023-02-14T18:44:04.432Z,37.45
2023-02-14T18:46:35.194Z,36.47
2023-02-14T18:49:03.692Z,33.22
2023-02-14T18:51:32.659Z,36.30
2023-02-14T18:54:04.407Z,38.53
2023-02-14T18:56:34.086Z,38.67
2023-02-14T18:59:10.027Z,44.28
2023-02-14T19:01:43.445Z,67.65
2023-02-14T19:04:12.206Z,59.58
2023-02-14T19:06:40.872Z,51.13
2023-02-14T19:09:10.549Z,54.17
2023-02-14T19:11:38.656Z,58.92
2023-02-14T19:14:09.953Z,59.70
2023-02-14T19:16:41.882Z,52.10
2023-02-14T19:19:08.744Z,48.47
2023-02-14T19:21:35.570Z,51.13
2023-02-14T19:24:06.726Z,49.00
2023-02-14T19:26:37.600Z,46.63
2023-02-14T19:29:08.111Z,43.78
2023-02-14T19:31:36.545Z,46.92
2023-02-14T19:34:06.126Z,45.03
2023-02-14T19:36:35.149Z,39.17
2023-02-14T19:39:01.818Z,42.00
2023-02-14T19:41:31.573Z,37.33
2023-02-14T19:43:58.984Z,38.00
2023-02-14T19:46:26.854Z,37.28
2023-02-14T19:48:53.645Z,31.15
2023-02-14T19:51:23.195Z,33.50
2023-02-14T19:53:50.104Z,35.22
2023-02-14T19:56:21.369Z,33.33
2023-02-14T19:58:49.481Z,35.22
2023-02-14T20:01:25.283Z,32.05
2023-02-14T20:03:53.218Z,30.30
2023-02-14T20:06:24.566Z,28.48
2023-02-14T20:08:51.776Z,32.58
2023-02-14T20:11:36.620Z,36.95
2023-02-14T20:14:04.733Z,33.35
2023-02-14T20:16:33.769Z,35.88
2023-02-14T20:19:13.461Z,39.53
2023-02-14T20:21:41.811Z,41.85
2023-02-14T20:24:09.098Z,34.00
2023-02-14T20:26:37.221Z,37.03
2023-02-14T20:29:04.997Z,36.42
2023-02-14T20:31:34.649Z,37.15
2023-02-14T20:34:01.596Z,31.95
2023-02-14T20:36:28.885Z,37.47
2023-02-14T20:39:00.384Z,35.83
2023-02-14T20:41:28.245Z,35.65
2023-02-14T20:43:55.332Z,41.95
2023-02-14T20:46:22.542Z,52.92
2023-02-14T20:48:50.928Z,55.05
2023-02-14T20:51:19.811Z,52.92
2023-02-14T20:53:47.037Z,49.67
2023-02-14T20:56:14.733Z,48.08
2023-02-14T20:58:41.912Z,49.67
2023-02-14T21:01:20.437Z,47.17
2023-02-14T21:03:50.771Z,37.20
2023-02-14T21:06:19.083Z,39.13
2023-02-14T21:08:46.330Z,34.72
2023-02-14T21:11:15.725Z,36.55
2023-02-14T21:13:42.553Z,37.53
2023-02-14T21:16:15.385Z,39.22
2023-02-14T21:18:47.791Z,46.25
2023-02-14T21:21:19.424Z,44.50
2023-02-14T21:23:49.098Z,42.30
2023-02-14T21:26:16.329Z,42.78
2023-02-14T21:28:42.924Z,43.00
2023-02-14T21:31:11.501Z,41.30
2023-02-14T21:33:38.605Z,39.55
2023-02-14T21:36:10.626Z,40.50
2023-02-14T21:38:37.285Z,44.53
2023-02-14T21:41:06.239Z,40.42
2023-02-14T21:43:37.975Z,46.05
2023-02-14T21:46:07.333Z,39.92
2023-02-14T21:48:52.636Z,44.05
2023-02-14T21:51:19.940Z,42.60
2023-02-14T21:53:47.071Z,42.60
2023-02-14T21:56:17.931Z,42.17
2023-02-14T21:58:45.137Z,37.50
2023-02-14T22:01:16.679Z,35.30
2023-02-14T22:03:43.408Z,34.97
2023-02-14T22:06:10.363Z,32.28
2023-02-14T22:08:36.951Z,34.88
2023-02-14T22:11:08.778Z,39.17
2023-02-14T22:13:35.790Z,25.13
2023-02-14T22:16:13.499Z,36.95
2023-02-14T22:18:41.086Z,37.95
2023-02-14T22:21:11.607Z,38.70
2023-02-14T22:23:38.314Z,39.97
2023-02-14T22:26:25.711Z,37.60
2023-02-14T22:28:56.903Z,40.47
2023-02-14T22:31:24.830Z,42.90
2023-02-14T22:33:51.915Z,37.60
2023-02-14T22:36:18.467Z,38.60
2023-02-14T22:38:45.154Z,41.80
2023-02-14T22:41:14.269Z,44.50
2023-02-14T22:43:41.780Z,39.45
2023-02-14T22:46:17.152Z,41.08
2023-02-14T22:48:44.341Z,39.58
2023-02-14T22:51:19.672Z,40.58
2023-02-14T22:53:46.789Z,43.65
2023-02-14T22:56:19.041Z,47.13
2023-02-14T22:58:46.237Z,49.40
2023-02-14T23:01:18.236Z,44.67
2023-02-14T23:03:45.711Z,48.63
2023-02-14T23:06:13.329Z,47.92
2023-02-14T23:08:45.052Z,49.22
2023-02-14T23:11:16.948Z,51.03
2023-02-14T23:14:02.584Z,43.55
2023-02-14T23:16:48.092Z,46.78
2023-02-14T23:19:38.388Z,42.28
2023-02-14T23:22:08.237Z,42.65
2023-02-14T23:24:34.848Z,48.22
2023-02-14T23:27:01.904Z,46.53
2023-02-14T23:29:28.857Z,45.38
2023-02-14T23:31:55.918Z,40.30
2023-02-14T23:34:27.258Z,40.25
2023-02-14T23:36:53.808Z,39.78
2023-02-14T23:39:20.571Z,39.75
2023-02-14T23:41:47.128Z,39.45
2023-02-14T23:44:27.746Z,43.85
2023-02-14T23:46:56.358Z,39.88
2023-02-14T23:49:24.497Z,39.22
2023-02-14T23:51:52.461Z,38.95
2023-02-14T23:54:20.452Z,40.90
2023-02-14T23:56:47.736Z,37.90
2023-02-14T23:59:15.298Z,41.03
